sensor_id;sensor_type;location;lat;lon;timestamp;P1;durP1;ratioP1;P2;durP2;ratioP2
74328;SDS011;62745;51.060;13.786;2023-05-29T00:01:58;5.70;;;2.90;;
74328;SDS011;62745;51.060;13.786;2023-05-29T00:04:23;7.10;;;3.00;;
74328;SDS011;62745;51.060;13.786;2023-05-29T00:06:48;4.70;;;2.63;;
74328;SDS011;62745;51.060;13.786;2023-05-29T00:09:13;6.70;;;3.10;;
74328;SDS011;62745;51.060;13.786;2023-05-29T00:11:40;7.00;;;2.78;;
74328;SDS011;62745;51.060;13.786;2023-05-29T00:14:05;7.20;;;3.20;;
74328;SDS011;62745;51.060;13.786;2023-05-29T00:16:30;6.53;;;3.20;;
74328;SDS011;62745;51.060;13.786;2023-05-29T00:18:56;6.20;;;3.13;;
74328;SDS011;62745;51.060;13.786;2023-05-29T00:21:22;7.88;;;3.28;;
74328;SDS011;62745;51.060;13.786;2023-05-29T00:23:48;7.70;;;3.40;;
74328;SDS011;62745;51.060;13.786;2023-05-29T00:26:13;10.17;;;4.10;;
74328;SDS011;62745;51.060;13.786;2023-05-29T00:28:41;8.07;;;3.45;;
74328;SDS011;62745;51.060;13.786;2023-05-29T00:31:07;6.50;;;3.13;;
74328;SDS011;62745;51.060;13.786;2023-05-29T00:33:32;9.45;;;3.80;;
74328;SDS011;62745;51.060;13.786;2023-05-29T00:35:57;8.50;;;3.50;;
74328;SDS011;62745;51.060;13.786;2023-05-29T00:38:23;8.40;;;3.57;;
74328;SDS011;62745;51.060;13.786;2023-05-29T00:40:48;9.13;;;4.03;;
74328;SDS011;62745;51.060;13.786;2023-05-29T00:43:13;9.18;;;3.63;;
74328;SDS011;62745;51.060;13.786;2023-05-29T00:45:39;9.17;;;3.37;;
74328;SDS011;62745;51.060;13.786;2023-05-29T00:48:05;7.50;;;3.90;;
74328;SDS011;62745;51.060;13.786;2023-05-29T00:50:31;6.57;;;3.22;;
74328;SDS011;62745;51.060;13.786;2023-05-29T00:52:58;8.10;;;3.53;;
74328;SDS011;62745;51.060;13.786;2023-05-29T00:55:26;8.52;;;3.60;;
74328;SDS011;62745;51.060;13.786;2023-05-29T00:57:52;7.75;;;3.40;;
74328;SDS011;62745;51.060;13.786;2023-05-29T01:00:18;6.20;;;2.95;;
74328;SDS011;62745;51.060;13.786;2023-05-29T01:02:45;7.40;;;3.10;;
74328;SDS011;62745;51.060;13.786;2023-05-29T01:05:11;7.65;;;3.20;;
74328;SDS011;62745;51.060;13.786;2023-05-29T01:07:37;5.88;;;3.20;;
74328;SDS011;62745;51.060;13.786;2023-05-29T01:10:04;6.45;;;2.80;;
74328;SDS011;62745;51.060;13.786;2023-05-29T01:12:40;7.28;;;3.58;;
74328;SDS011;62745;51.060;13.786;2023-05-29T01:15:49;5.00;;;2.75;;
74328;SDS011;62745;51.060;13.786;2023-05-29T01:18:30;8.32;;;3.15;;
74328;SDS011;62745;51.060;13.786;2023-05-29T01:21:04;5.57;;;2.70;;
74328;SDS011;62745;51.060;13.786;2023-05-29T01:26:47;7.10;;;3.00;;
74328;SDS011;62745;51.060;13.786;2023-05-29T01:29:23;6.10;;;2.80;;
74328;SDS011;62745;51.060;13.786;2023-05-29T01:31:51;6.55;;;3.08;;
74328;SDS011;62745;51.060;13.786;2023-05-29T01:34:18;5.95;;;2.90;;
74328;SDS011;62745;51.060;13.786;2023-05-29T01:36:43;8.18;;;2.90;;
74328;SDS011;62745;51.060;13.786;2023-05-29T01:39:08;7.13;;;3.10;;
74328;SDS011;62745;51.060;13.786;2023-05-29T01:41:34;6.85;;;2.95;;
74328;SDS011;62745;51.060;13.786;2023-05-29T01:44:01;7.07;;;3.22;;
74328;SDS011;62745;51.060;13.786;2023-05-29T01:46:28;7.97;;;3.17;;
74328;SDS011;62745;51.060;13.786;2023-05-29T01:48:54;4.97;;;2.67;;
74328;SDS011;62745;51.060;13.786;2023-05-29T01:51:20;6.82;;;2.85;;
74328;SDS011;62745;51.060;13.786;2023-05-29T01:53:45;6.38;;;3.05;;
74328;SDS011;62745;51.060;13.786;2023-05-29T01:56:11;6.10;;;2.73;;
74328;SDS011;62745;51.060;13.786;2023-05-29T01:58:37;7.07;;;2.97;;
74328;SDS011;62745;51.060;13.786;2023-05-29T02:01:03;8.88;;;3.33;;
74328;SDS011;62745;51.060;13.786;2023-05-29T02:03:29;5.70;;;2.70;;
74328;SDS011;62745;51.060;13.786;2023-05-29T02:05:54;7.35;;;2.85;;
74328;SDS011;62745;51.060;13.786;2023-05-29T02:08:21;5.80;;;3.22;;
74328;SDS011;62745;51.060;13.786;2023-05-29T02:10:47;6.75;;;2.78;;
74328;SDS011;62745;51.060;13.786;2023-05-29T02:13:12;5.50;;;2.67;;
74328;SDS011;62745;51.060;13.786;2023-05-29T02:15:37;5.13;;;2.57;;
74328;SDS011;62745;51.060;13.786;2023-05-29T02:18:03;5.57;;;2.80;;
74328;SDS011;62745;51.060;13.786;2023-05-29T02:20:28;7.78;;;3.13;;
74328;SDS011;62745;51.060;13.786;2023-05-29T02:22:54;7.57;;;2.95;;
74328;SDS011;62745;51.060;13.786;2023-05-29T02:25:19;6.60;;;3.20;;
74328;SDS011;62745;51.060;13.786;2023-05-29T02:27:44;6.47;;;2.90;;
74328;SDS011;62745;51.060;13.786;2023-05-29T02:30:10;5.97;;;2.90;;
74328;SDS011;62745;51.060;13.786;2023-05-29T02:32:36;5.95;;;3.00;;
74328;SDS011;62745;51.060;13.786;2023-05-29T02:35:01;7.97;;;3.37;;
74328;SDS011;62745;51.060;13.786;2023-05-29T02:37:27;6.55;;;3.10;;
74328;SDS011;62745;51.060;13.786;2023-05-29T02:39:53;6.38;;;3.28;;
74328;SDS011;62745;51.060;13.786;2023-05-29T02:42:18;6.57;;;2.97;;
74328;SDS011;62745;51.060;13.786;2023-05-29T02:44:43;7.00;;;2.88;;
74328;SDS011;62745;51.060;13.786;2023-05-29T02:47:09;6.40;;;2.80;;
74328;SDS011;62745;51.060;13.786;2023-05-29T02:49:34;5.73;;;3.00;;
74328;SDS011;62745;51.060;13.786;2023-05-29T02:51:59;8.90;;;2.93;;
74328;SDS011;62745;51.060;13.786;2023-05-29T02:54:25;9.00;;;2.95;;
74328;SDS011;62745;51.060;13.786;2023-05-29T02:56:50;6.35;;;2.50;;
74328;SDS011;62745;51.060;13.786;2023-05-29T02:59:16;5.55;;;2.70;;
74328;SDS011;62745;51.060;13.786;2023-05-29T03:01:41;6.63;;;3.50;;
74328;SDS011;62745;51.060;13.786;2023-05-29T03:04:07;8.40;;;3.10;;
74328;SDS011;62745;51.060;13.786;2023-05-29T03:06:34;6.78;;;3.15;;
74328;SDS011;62745;51.060;13.786;2023-05-29T03:08:59;6.50;;;2.73;;
74328;SDS011;62745;51.060;13.786;2023-05-29T03:11:25;6.33;;;3.10;;
74328;SDS011;62745;51.060;13.786;2023-05-29T03:13:50;7.00;;;2.90;;
74328;SDS011;62745;51.060;13.786;2023-05-29T03:16:15;7.05;;;3.17;;
74328;SDS011;62745;51.060;13.786;2023-05-29T03:18:41;7.35;;;2.75;;
74328;SDS011;62745;51.060;13.786;2023-05-29T03:21:06;6.60;;;3.23;;
74328;SDS011;62745;51.060;13.786;2023-05-29T03:23:32;7.18;;;2.67;;
74328;SDS011;62745;51.060;13.786;2023-05-29T03:25:57;7.50;;;3.10;;
74328;SDS011;62745;51.060;13.786;2023-05-29T03:28:23;6.40;;;3.23;;
74328;SDS011;62745;51.060;13.786;2023-05-29T03:30:48;9.60;;;2.80;;
74328;SDS011;62745;51.060;13.786;2023-05-29T03:33:13;6.50;;;2.70;;
74328;SDS011;62745;51.060;13.786;2023-05-29T03:35:38;5.67;;;3.07;;
74328;SDS011;62745;51.060;13.786;2023-05-29T03:38:04;8.87;;;3.57;;
74328;SDS011;62745;51.060;13.786;2023-05-29T03:40:29;7.77;;;3.40;;
74328;SDS011;62745;51.060;13.786;2023-05-29T03:42:54;7.28;;;3.30;;
74328;SDS011;62745;51.060;13.786;2023-05-29T03:45:20;9.32;;;3.38;;
74328;SDS011;62745;51.060;13.786;2023-05-29T03:47:45;6.00;;;2.90;;
74328;SDS011;62745;51.060;13.786;2023-05-29T03:50:11;11.57;;;3.00;;
74328;SDS011;62745;51.060;13.786;2023-05-29T03:52:39;7.05;;;2.92;;
74328;SDS011;62745;51.060;13.786;2023-05-29T03:55:08;6.87;;;2.87;;
74328;SDS011;62745;51.060;13.786;2023-05-29T03:57:34;7.50;;;2.90;;
74328;SDS011;62745;51.060;13.786;2023-05-29T03:59:59;5.40;;;2.40;;
74328;SDS011;62745;51.060;13.786;2023-05-29T04:02:25;6.32;;;3.00;;
74328;SDS011;62745;51.060;13.786;2023-05-29T04:04:50;5.47;;;2.83;;
74328;SDS011;62745;51.060;13.786;2023-05-29T04:07:17;6.97;;;2.70;;
74328;SDS011;62745;51.060;13.786;2023-05-29T04:09:43;5.78;;;3.00;;
74328;SDS011;62745;51.060;13.786;2023-05-29T04:12:09;5.67;;;3.00;;
74328;SDS011;62745;51.060;13.786;2023-05-29T04:14:34;5.63;;;2.75;;
74328;SDS011;62745;51.060;13.786;2023-05-29T04:16:59;7.40;;;3.10;;
74328;SDS011;62745;51.060;13.786;2023-05-29T04:19:25;5.53;;;2.97;;
74328;SDS011;62745;51.060;13.786;2023-05-29T04:21:50;7.30;;;3.13;;
74328;SDS011;62745;51.060;13.786;2023-05-29T04:24:15;6.80;;;3.22;;
74328;SDS011;62745;51.060;13.786;2023-05-29T04:26:41;6.55;;;3.17;;
74328;SDS011;62745;51.060;13.786;2023-05-29T04:29:06;6.83;;;3.27;;
74328;SDS011;62745;51.060;13.786;2023-05-29T04:31:32;6.60;;;2.80;;
74328;SDS011;62745;51.060;13.786;2023-05-29T04:33:58;6.93;;;2.97;;
74328;SDS011;62745;51.060;13.786;2023-05-29T04:36:25;7.32;;;2.85;;
74328;SDS011;62745;51.060;13.786;2023-05-29T04:38:53;6.43;;;3.10;;
74328;SDS011;62745;51.060;13.786;2023-05-29T04:41:19;6.50;;;3.20;;
74328;SDS011;62745;51.060;13.786;2023-05-29T04:43:48;6.68;;;3.17;;
74328;SDS011;62745;51.060;13.786;2023-05-29T04:46:14;6.55;;;3.03;;
74328;SDS011;62745;51.060;13.786;2023-05-29T04:48:40;9.10;;;3.33;;
74328;SDS011;62745;51.060;13.786;2023-05-29T04:51:06;7.17;;;3.27;;
74328;SDS011;62745;51.060;13.786;2023-05-29T04:53:31;6.57;;;3.47;;
74328;SDS011;62745;51.060;13.786;2023-05-29T04:55:57;7.75;;;3.42;;
74328;SDS011;62745;51.060;13.786;2023-05-29T04:58:25;7.25;;;3.42;;
74328;SDS011;62745;51.060;13.786;2023-05-29T05:00:51;6.20;;;3.15;;
74328;SDS011;62745;51.060;13.786;2023-05-29T05:03:16;6.33;;;3.23;;
74328;SDS011;62745;51.060;13.786;2023-05-29T05:05:41;7.88;;;3.25;;
74328;SDS011;62745;51.060;13.786;2023-05-29T05:08:08;8.63;;;3.78;;
74328;SDS011;62745;51.060;13.786;2023-05-29T05:10:34;6.60;;;2.92;;
74328;SDS011;62745;51.060;13.786;2023-05-29T05:13:00;8.53;;;3.67;;
74328;SDS011;62745;51.060;13.786;2023-05-29T05:15:27;7.60;;;3.67;;
74328;SDS011;62745;51.060;13.786;2023-05-29T05:17:52;7.32;;;3.17;;
74328;SDS011;62745;51.060;13.786;2023-05-29T05:20:18;6.87;;;3.63;;
74328;SDS011;62745;51.060;13.786;2023-05-29T05:22:43;6.07;;;3.13;;
74328;SDS011;62745;51.060;13.786;2023-05-29T05:25:08;6.63;;;3.20;;
74328;SDS011;62745;51.060;13.786;2023-05-29T05:27:34;6.25;;;3.30;;
74328;SDS011;62745;51.060;13.786;2023-05-29T05:29:59;8.18;;;2.95;;
74328;SDS011;62745;51.060;13.786;2023-05-29T05:32:24;8.05;;;3.75;;
74328;SDS011;62745;51.060;13.786;2023-05-29T05:34:50;6.88;;;3.50;;
74328;SDS011;62745;51.060;13.786;2023-05-29T05:37:15;6.13;;;3.35;;
74328;SDS011;62745;51.060;13.786;2023-05-29T05:39:40;7.67;;;3.10;;
74328;SDS011;62745;51.060;13.786;2023-05-29T05:42:05;6.77;;;3.63;;
74328;SDS011;62745;51.060;13.786;2023-05-29T05:44:31;5.82;;;3.17;;
74328;SDS011;62745;51.060;13.786;2023-05-29T05:46:56;6.43;;;3.03;;
74328;SDS011;62745;51.060;13.786;2023-05-29T05:49:21;7.67;;;3.47;;
74328;SDS011;62745;51.060;13.786;2023-05-29T05:51:47;5.97;;;3.03;;
74328;SDS011;62745;51.060;13.786;2023-05-29T05:54:12;8.20;;;3.13;;
74328;SDS011;62745;51.060;13.786;2023-05-29T05:56:38;6.20;;;3.00;;
74328;SDS011;62745;51.060;13.786;2023-05-29T05:59:03;5.97;;;2.83;;
74328;SDS011;62745;51.060;13.786;2023-05-29T06:01:28;6.40;;;2.93;;
74328;SDS011;62745;51.060;13.786;2023-05-29T06:03:54;7.72;;;2.90;;
74328;SDS011;62745;51.060;13.786;2023-05-29T06:06:19;7.63;;;3.37;;
74328;SDS011;62745;51.060;13.786;2023-05-29T06:08:44;11.68;;;3.33;;
74328;SDS011;62745;51.060;13.786;2023-05-29T06:11:11;6.93;;;3.13;;
74328;SDS011;62745;51.060;13.786;2023-05-29T06:13:37;7.53;;;3.00;;
74328;SDS011;62745;51.060;13.786;2023-05-29T06:16:02;9.20;;;3.57;;
74328;SDS011;62745;51.060;13.786;2023-05-29T06:18:28;6.32;;;2.90;;
74328;SDS011;62745;51.060;13.786;2023-05-29T06:20:53;7.17;;;3.23;;
74328;SDS011;62745;51.060;13.786;2023-05-29T06:23:18;7.73;;;2.90;;
74328;SDS011;62745;51.060;13.786;2023-05-29T06:25:44;6.30;;;2.92;;
74328;SDS011;62745;51.060;13.786;2023-05-29T06:28:09;9.02;;;3.08;;
74328;SDS011;62745;51.060;13.786;2023-05-29T06:30:34;6.57;;;3.20;;
74328;SDS011;62745;51.060;13.786;2023-05-29T06:33:00;7.28;;;3.28;;
74328;SDS011;62745;51.060;13.786;2023-05-29T06:35:25;6.13;;;3.10;;
74328;SDS011;62745;51.060;13.786;2023-05-29T06:37:51;8.97;;;3.57;;
74328;SDS011;62745;51.060;13.786;2023-05-29T06:40:16;8.63;;;3.03;;
74328;SDS011;62745;51.060;13.786;2023-05-29T06:42:41;7.13;;;3.07;;
74328;SDS011;62745;51.060;13.786;2023-05-29T06:45:09;8.60;;;2.92;;
74328;SDS011;62745;51.060;13.786;2023-05-29T06:47:36;7.22;;;3.40;;
74328;SDS011;62745;51.060;13.786;2023-05-29T06:50:01;6.47;;;3.23;;
74328;SDS011;62745;51.060;13.786;2023-05-29T06:52:26;7.73;;;3.43;;
74328;SDS011;62745;51.060;13.786;2023-05-29T06:54:51;9.20;;;3.53;;
74328;SDS011;62745;51.060;13.786;2023-05-29T06:57:19;7.28;;;2.80;;
74328;SDS011;62745;51.060;13.786;2023-05-29T06:59:44;6.97;;;3.23;;
74328;SDS011;62745;51.060;13.786;2023-05-29T07:02:09;14.17;;;3.90;;
74328;SDS011;62745;51.060;13.786;2023-05-29T07:04:35;19.42;;;4.82;;
74328;SDS011;62745;51.060;13.786;2023-05-29T07:07:00;8.30;;;3.33;;
74328;SDS011;62745;51.060;13.786;2023-05-29T07:09:26;31.47;;;5.53;;
74328;SDS011;62745;51.060;13.786;2023-05-29T07:11:52;14.48;;;4.30;;
74328;SDS011;62745;51.060;13.786;2023-05-29T07:14:17;6.32;;;3.45;;
74328;SDS011;62745;51.060;13.786;2023-05-29T07:16:43;5.73;;;3.10;;
74328;SDS011;62745;51.060;13.786;2023-05-29T07:19:08;7.55;;;3.33;;
74328;SDS011;62745;51.060;13.786;2023-05-29T07:21:33;8.57;;;3.03;;
74328;SDS011;62745;51.060;13.786;2023-05-29T07:23:59;6.20;;;3.13;;
74328;SDS011;62745;51.060;13.786;2023-05-29T07:26:24;5.93;;;2.80;;
74328;SDS011;62745;51.060;13.786;2023-05-29T07:28:50;6.40;;;3.10;;
74328;SDS011;62745;51.060;13.786;2023-05-29T07:31:15;6.95;;;3.20;;
74328;SDS011;62745;51.060;13.786;2023-05-29T07:33:41;7.28;;;2.70;;
74328;SDS011;62745;51.060;13.786;2023-05-29T07:36:06;6.43;;;3.05;;
74328;SDS011;62745;51.060;13.786;2023-05-29T07:38:32;6.20;;;2.90;;
74328;SDS011;62745;51.060;13.786;2023-05-29T07:40:58;6.88;;;2.60;;
74328;SDS011;62745;51.060;13.786;2023-05-29T07:43:23;6.60;;;3.00;;
74328;SDS011;62745;51.060;13.786;2023-05-29T07:45:48;8.10;;;2.83;;
74328;SDS011;62745;51.060;13.786;2023-05-29T07:48:14;5.00;;;2.58;;
74328;SDS011;62745;51.060;13.786;2023-05-29T07:50:40;5.93;;;2.65;;
74328;SDS011;62745;51.060;13.786;2023-05-29T07:53:10;5.88;;;3.03;;
74328;SDS011;62745;51.060;13.786;2023-05-29T07:55:35;7.70;;;3.40;;
74328;SDS011;62745;51.060;13.786;2023-05-29T07:58:01;7.93;;;3.30;;
74328;SDS011;62745;51.060;13.786;2023-05-29T08:00:27;8.15;;;2.72;;
74328;SDS011;62745;51.060;13.786;2023-05-29T08:02:53;5.28;;;2.83;;
74328;SDS011;62745;51.060;13.786;2023-05-29T08:05:19;9.05;;;2.90;;
74328;SDS011;62745;51.060;13.786;2023-05-29T08:07:45;7.03;;;2.70;;
74328;SDS011;62745;51.060;13.786;2023-05-29T08:10:11;6.07;;;2.90;;
74328;SDS011;62745;51.060;13.786;2023-05-29T08:12:36;5.37;;;2.23;;
74328;SDS011;62745;51.060;13.786;2023-05-29T08:15:02;8.30;;;3.00;;
74328;SDS011;62745;51.060;13.786;2023-05-29T08:17:28;5.45;;;2.65;;
74328;SDS011;62745;51.060;13.786;2023-05-29T08:19:54;5.82;;;2.75;;
74328;SDS011;62745;51.060;13.786;2023-05-29T08:22:20;6.07;;;2.60;;
74328;SDS011;62745;51.060;13.786;2023-05-29T08:24:47;7.13;;;2.97;;
74328;SDS011;62745;51.060;13.786;2023-05-29T08:27:15;7.30;;;2.70;;
74328;SDS011;62745;51.060;13.786;2023-05-29T08:29:40;6.53;;;2.40;;
74328;SDS011;62745;51.060;13.786;2023-05-29T08:32:07;5.63;;;2.35;;
74328;SDS011;62745;51.060;13.786;2023-05-29T08:34:34;4.63;;;2.33;;
74328;SDS011;62745;51.060;13.786;2023-05-29T08:37:01;6.88;;;2.35;;
74328;SDS011;62745;51.060;13.786;2023-05-29T08:39:28;8.32;;;2.15;;
74328;SDS011;62745;51.060;13.786;2023-05-29T08:42:04;4.93;;;2.35;;
74328;SDS011;62745;51.060;13.786;2023-05-29T08:44:33;5.95;;;2.00;;
74328;SDS011;62745;51.060;13.786;2023-05-29T08:47:00;5.28;;;2.13;;
74328;SDS011;62745;51.060;13.786;2023-05-29T08:49:26;5.13;;;2.20;;
74328;SDS011;62745;51.060;13.786;2023-05-29T08:51:57;5.43;;;2.15;;
74328;SDS011;62745;51.060;13.786;2023-05-29T08:54:30;6.45;;;2.30;;
74328;SDS011;62745;51.060;13.786;2023-05-29T08:56:57;5.38;;;2.30;;
74328;SDS011;62745;51.060;13.786;2023-05-29T08:59:23;8.02;;;2.53;;
74328;SDS011;62745;51.060;13.786;2023-05-29T09:01:49;7.40;;;2.40;;
74328;SDS011;62745;51.060;13.786;2023-05-29T09:04:15;6.65;;;2.50;;
74328;SDS011;62745;51.060;13.786;2023-05-29T09:06:40;4.03;;;2.17;;
74328;SDS011;62745;51.060;13.786;2023-05-29T09:09:06;5.90;;;2.30;;
74328;SDS011;62745;51.060;13.786;2023-05-29T09:11:31;5.27;;;2.10;;
74328;SDS011;62745;51.060;13.786;2023-05-29T09:13:57;4.10;;;2.03;;
74328;SDS011;62745;51.060;13.786;2023-05-29T09:16:23;5.78;;;2.00;;
74328;SDS011;62745;51.060;13.786;2023-05-29T09:18:48;4.30;;;1.80;;
74328;SDS011;62745;51.060;13.786;2023-05-29T09:21:24;5.47;;;1.93;;
74328;SDS011;62745;51.060;13.786;2023-05-29T09:23:52;3.92;;;1.70;;
74328;SDS011;62745;51.060;13.786;2023-05-29T09:26:19;3.92;;;1.60;;
74328;SDS011;62745;51.060;13.786;2023-05-29T09:28:47;6.10;;;1.83;;
74328;SDS011;62745;51.060;13.786;2023-05-29T09:31:13;5.88;;;1.85;;
74328;SDS011;62745;51.060;13.786;2023-05-29T09:33:48;3.95;;;1.63;;
74328;SDS011;62745;51.060;13.786;2023-05-29T09:36:23;6.78;;;1.98;;
74328;SDS011;62745;51.060;13.786;2023-05-29T09:38:49;3.92;;;1.70;;
74328;SDS011;62745;51.060;13.786;2023-05-29T09:41:21;4.80;;;1.70;;
74328;SDS011;62745;51.060;13.786;2023-05-29T09:43:49;5.30;;;1.77;;
74328;SDS011;62745;51.060;13.786;2023-05-29T09:46:16;3.83;;;1.58;;
74328;SDS011;62745;51.060;13.786;2023-05-29T09:48:44;7.43;;;1.83;;
74328;SDS011;62745;51.060;13.786;2023-05-29T09:51:20;5.40;;;1.58;;
74328;SDS011;62745;51.060;13.786;2023-05-29T09:53:46;5.07;;;1.65;;
74328;SDS011;62745;51.060;13.786;2023-05-29T09:56:12;5.30;;;2.10;;
74328;SDS011;62745;51.060;13.786;2023-05-29T09:58:40;6.00;;;1.80;;
74328;SDS011;62745;51.060;13.786;2023-05-29T10:01:10;4.45;;;1.80;;
74328;SDS011;62745;51.060;13.786;2023-05-29T10:03:37;6.45;;;1.95;;
74328;SDS011;62745;51.060;13.786;2023-05-29T10:06:02;3.35;;;1.70;;
74328;SDS011;62745;51.060;13.786;2023-05-29T10:08:30;4.95;;;1.90;;
74328;SDS011;62745;51.060;13.786;2023-05-29T10:11:01;7.88;;;2.03;;
74328;SDS011;62745;51.060;13.786;2023-05-29T10:13:28;6.47;;;2.38;;
74328;SDS011;62745;51.060;13.786;2023-05-29T10:15:58;4.03;;;1.58;;
74328;SDS011;62745;51.060;13.786;2023-05-29T10:18:43;7.05;;;2.20;;
74328;SDS011;62745;51.060;13.786;2023-05-29T10:21:14;5.57;;;2.15;;
74328;SDS011;62745;51.060;13.786;2023-05-29T10:23:40;4.63;;;1.92;;
74328;SDS011;62745;51.060;13.786;2023-05-29T10:26:26;5.10;;;2.10;;
74328;SDS011;62745;51.060;13.786;2023-05-29T10:28:58;6.38;;;2.28;;
74328;SDS011;62745;51.060;13.786;2023-05-29T10:37:57;4.85;;;1.92;;
74328;SDS011;62745;51.060;13.786;2023-05-29T10:40:10;5.97;;;2.20;;
74328;SDS011;62745;51.060;13.786;2023-05-29T10:42:50;5.07;;;2.00;;
74328;SDS011;62745;51.060;13.786;2023-05-29T10:50:40;4.50;;;2.00;;
74328;SDS011;62745;51.060;13.786;2023-05-29T10:53:07;7.47;;;2.10;;
74328;SDS011;62745;51.060;13.786;2023-05-29T10:55:38;5.22;;;1.98;;
74328;SDS011;62745;51.060;13.786;2023-05-29T10:58:05;4.32;;;1.70;;
74328;SDS011;62745;51.060;13.786;2023-05-29T11:00:40;5.03;;;2.20;;
74328;SDS011;62745;51.060;13.786;2023-05-29T11:03:07;5.25;;;2.17;;
74328;SDS011;62745;51.060;13.786;2023-05-29T11:05:33;5.63;;;1.92;;
74328;SDS011;62745;51.060;13.786;2023-05-29T11:07:59;3.88;;;1.90;;
74328;SDS011;62745;51.060;13.786;2023-05-29T11:13:32;6.03;;;2.13;;
74328;SDS011;62745;51.060;13.786;2023-05-29T11:16:05;6.55;;;1.95;;
74328;SDS011;62745;51.060;13.786;2023-05-29T11:18:40;6.07;;;1.88;;
74328;SDS011;62745;51.060;13.786;2023-05-29T11:23:57;4.70;;;2.00;;
74328;SDS011;62745;51.060;13.786;2023-05-29T11:26:25;5.63;;;2.22;;
74328;SDS011;62745;51.060;13.786;2023-05-29T11:28:53;5.25;;;2.15;;
74328;SDS011;62745;51.060;13.786;2023-05-29T11:31:19;4.33;;;2.00;;
74328;SDS011;62745;51.060;13.786;2023-05-29T11:33:48;5.43;;;2.13;;
74328;SDS011;62745;51.060;13.786;2023-05-29T11:36:16;5.05;;;2.20;;
74328;SDS011;62745;51.060;13.786;2023-05-29T11:38:43;6.10;;;2.00;;
74328;SDS011;62745;51.060;13.786;2023-05-29T11:41:10;3.90;;;2.00;;
74328;SDS011;62745;51.060;13.786;2023-05-29T11:43:35;8.68;;;1.98;;
74328;SDS011;62745;51.060;13.786;2023-05-29T11:46:01;4.88;;;2.03;;
74328;SDS011;62745;51.060;13.786;2023-05-29T11:48:27;6.40;;;1.95;;
74328;SDS011;62745;51.060;13.786;2023-05-29T11:50:52;5.82;;;1.98;;
74328;SDS011;62745;51.060;13.786;2023-05-29T11:53:18;6.10;;;2.00;;
74328;SDS011;62745;51.060;13.786;2023-05-29T11:55:43;4.55;;;1.95;;
74328;SDS011;62745;51.060;13.786;2023-05-29T11:58:09;9.73;;;2.00;;
74328;SDS011;62745;51.060;13.786;2023-05-29T12:00:35;6.80;;;2.20;;
74328;SDS011;62745;51.060;13.786;2023-05-29T12:03:03;4.75;;;2.08;;
74328;SDS011;62745;51.060;13.786;2023-05-29T12:05:29;4.88;;;2.00;;
74328;SDS011;62745;51.060;13.786;2023-05-29T12:07:56;4.63;;;2.00;;
74328;SDS011;62745;51.060;13.786;2023-05-29T12:10:22;5.57;;;2.03;;
74328;SDS011;62745;51.060;13.786;2023-05-29T12:12:51;6.40;;;2.28;;
74328;SDS011;62745;51.060;13.786;2023-05-29T12:15:18;5.78;;;2.00;;
74328;SDS011;62745;51.060;13.786;2023-05-29T12:17:44;5.35;;;2.13;;
74328;SDS011;62745;51.060;13.786;2023-05-29T12:20:10;4.90;;;2.00;;
74328;SDS011;62745;51.060;13.786;2023-05-29T12:22:38;4.32;;;1.98;;
74328;SDS011;62745;51.060;13.786;2023-05-29T12:25:15;5.50;;;2.03;;
74328;SDS011;62745;51.060;13.786;2023-05-29T12:27:42;6.78;;;1.90;;
74328;SDS011;62745;51.060;13.786;2023-05-29T12:30:19;7.97;;;2.17;;
74328;SDS011;62745;51.060;13.786;2023-05-29T12:32:46;6.07;;;2.30;;
74328;SDS011;62745;51.060;13.786;2023-05-29T12:37:49;5.63;;;1.98;;
74328;SDS011;62745;51.060;13.786;2023-05-29T12:40:23;4.03;;;1.88;;
74328;SDS011;62745;51.060;13.786;2023-05-29T12:42:54;4.43;;;1.98;;
74328;SDS011;62745;51.060;13.786;2023-05-29T12:45:21;5.63;;;2.03;;
74328;SDS011;62745;51.060;13.786;2023-05-29T12:47:50;5.93;;;2.17;;
74328;SDS011;62745;51.060;13.786;2023-05-29T12:50:26;5.05;;;2.20;;
74328;SDS011;62745;51.060;13.786;2023-05-29T12:53:03;5.82;;;2.17;;
74328;SDS011;62745;51.060;13.786;2023-05-29T12:55:33;5.30;;;2.35;;
74328;SDS011;62745;51.060;13.786;2023-05-29T12:58:04;4.75;;;2.17;;
74328;SDS011;62745;51.060;13.786;2023-05-29T13:00:29;4.65;;;2.35;;
74328;SDS011;62745;51.060;13.786;2023-05-29T13:02:56;6.07;;;2.22;;
74328;SDS011;62745;51.060;13.786;2023-05-29T13:05:21;5.55;;;2.35;;
74328;SDS011;62745;51.060;13.786;2023-05-29T13:07:48;5.35;;;1.90;;
74328;SDS011;62745;51.060;13.786;2023-05-29T13:10:14;8.38;;;2.38;;
74328;SDS011;62745;51.060;13.786;2023-05-29T13:12:43;4.95;;;2.08;;
74328;SDS011;62745;51.060;13.786;2023-05-29T13:15:10;5.45;;;2.40;;
74328;SDS011;62745;51.060;13.786;2023-05-29T13:17:37;6.03;;;2.17;;
74328;SDS011;62745;51.060;13.786;2023-05-29T13:20:02;6.05;;;2.58;;
74328;SDS011;62745;51.060;13.786;2023-05-29T13:22:31;5.25;;;2.40;;
74328;SDS011;62745;51.060;13.786;2023-05-29T13:24:58;5.10;;;2.42;;
74328;SDS011;62745;51.060;13.786;2023-05-29T13:27:24;5.00;;;2.20;;
74328;SDS011;62745;51.060;13.786;2023-05-29T13:29:50;6.00;;;2.28;;
74328;SDS011;62745;51.060;13.786;2023-05-29T13:32:15;5.38;;;1.95;;
74328;SDS011;62745;51.060;13.786;2023-05-29T13:34:41;5.87;;;2.30;;
74328;SDS011;62745;51.060;13.786;2023-05-29T13:37:07;6.35;;;2.60;;
74328;SDS011;62745;51.060;13.786;2023-05-29T13:39:32;5.00;;;2.27;;
74328;SDS011;62745;51.060;13.786;2023-05-29T13:41:57;6.17;;;2.40;;
74328;SDS011;62745;51.060;13.786;2023-05-29T13:44:22;6.10;;;2.15;;
74328;SDS011;62745;51.060;13.786;2023-05-29T13:46:48;6.40;;;2.40;;
74328;SDS011;62745;51.060;13.786;2023-05-29T13:49:13;5.53;;;2.30;;
74328;SDS011;62745;51.060;13.786;2023-05-29T13:51:38;6.05;;;2.30;;
74328;SDS011;62745;51.060;13.786;2023-05-29T13:54:04;7.00;;;2.55;;
74328;SDS011;62745;51.060;13.786;2023-05-29T13:56:29;5.20;;;2.25;;
74328;SDS011;62745;51.060;13.786;2023-05-29T13:58:55;6.50;;;2.33;;
74328;SDS011;62745;51.060;13.786;2023-05-29T14:01:24;8.13;;;2.50;;
74328;SDS011;62745;51.060;13.786;2023-05-29T14:03:49;5.32;;;2.30;;
74328;SDS011;62745;51.060;13.786;2023-05-29T14:06:15;5.10;;;2.30;;
74328;SDS011;62745;51.060;13.786;2023-05-29T14:08:40;5.40;;;2.00;;
74328;SDS011;62745;51.060;13.786;2023-05-29T14:11:05;5.70;;;2.22;;
74328;SDS011;62745;51.060;13.786;2023-05-29T14:13:31;5.40;;;2.60;;
74328;SDS011;62745;51.060;13.786;2023-05-29T14:15:56;6.03;;;2.27;;
74328;SDS011;62745;51.060;13.786;2023-05-29T14:18:22;6.20;;;2.53;;
74328;SDS011;62745;51.060;13.786;2023-05-29T14:20:48;6.05;;;2.38;;
74328;SDS011;62745;51.060;13.786;2023-05-29T14:23:14;5.55;;;2.28;;
74328;SDS011;62745;51.060;13.786;2023-05-29T14:25:41;7.53;;;2.30;;
74328;SDS011;62745;51.060;13.786;2023-05-29T14:28:07;5.60;;;2.47;;
74328;SDS011;62745;51.060;13.786;2023-05-29T14:30:32;6.40;;;2.38;;
74328;SDS011;62745;51.060;13.786;2023-05-29T14:32:58;5.40;;;2.50;;
74328;SDS011;62745;51.060;13.786;2023-05-29T14:35:23;4.97;;;2.17;;
74328;SDS011;62745;51.060;13.786;2023-05-29T14:37:48;4.97;;;2.20;;
74328;SDS011;62745;51.060;13.786;2023-05-29T14:40:14;6.50;;;2.15;;
74328;SDS011;62745;51.060;13.786;2023-05-29T14:42:39;5.93;;;2.33;;
74328;SDS011;62745;51.060;13.786;2023-05-29T14:45:04;5.17;;;2.50;;
74328;SDS011;62745;51.060;13.786;2023-05-29T14:47:30;6.03;;;2.50;;
74328;SDS011;62745;51.060;13.786;2023-05-29T14:49:56;6.43;;;2.47;;
74328;SDS011;62745;51.060;13.786;2023-05-29T14:52:21;5.87;;;2.40;;
74328;SDS011;62745;51.060;13.786;2023-05-29T14:54:46;4.37;;;2.27;;